sensor_id;sensor_type;location;lat;lon;timestamp;P1;durP1;ratioP1;P2;durP2;ratioP2
23155;SDS011;11746;50.876;4.246;2024-01-11T00:01:55;30.00;;;13.18;;
23155;SDS011;11746;50.876;4.246;2024-01-11T00:04:23;25.02;;;13.00;;
23155;SDS011;11746;50.876;4.246;2024-01-11T00:06:54;26.15;;;13.23;;
23155;SDS011;11746;50.876;4.246;2024-01-11T00:09:20;25.55;;;12.77;;
23155;SDS011;11746;50.876;4.246;2024-01-11T00:11:48;28.65;;;13.38;;
23155;SDS011;11746;50.876;4.246;2024-01-11T00:14:14;25.70;;;13.15;;
23155;SDS011;11746;50.876;4.246;2024-01-11T00:16:44;28.33;;;12.13;;
23155;SDS011;11746;50.876;4.246;2024-01-11T00:19:12;23.85;;;12.40;;
23155;SDS011;11746;50.876;4.246;2024-01-11T00:21:38;26.45;;;12.93;;
23155;SDS011;11746;50.876;4.246;2024-01-11T00:24:03;24.65;;;12.82;;
23155;SDS011;11746;50.876;4.246;2024-01-11T00:26:29;24.65;;;12.80;;
23155;SDS011;11746;50.876;4.246;2024-01-11T00:28:59;26.95;;;13.48;;
23155;SDS011;11746;50.876;4.246;2024-01-11T00:31:25;28.92;;;13.65;;
23155;SDS011;11746;50.876;4.246;2024-01-11T00:33:50;23.55;;;12.13;;
23155;SDS011;11746;50.876;4.246;2024-01-11T00:36:18;26.02;;;13.30;;
23155;SDS011;11746;50.876;4.246;2024-01-11T00:38:47;28.33;;;14.40;;
23155;SDS011;11746;50.876;4.246;2024-01-11T00:41:13;25.63;;;13.45;;
23155;SDS011;11746;50.876;4.246;2024-01-11T00:43:41;23.70;;;12.77;;
23155;SDS011;11746;50.876;4.246;2024-01-11T00:46:07;28.48;;;13.55;;
23155;SDS011;11746;50.876;4.246;2024-01-11T00:48:33;27.02;;;13.43;;
23155;SDS011;11746;50.876;4.246;2024-01-11T00:51:03;27.33;;;13.45;;
23155;SDS011;11746;50.876;4.246;2024-01-11T00:53:31;28.40;;;13.75;;
23155;SDS011;11746;50.876;4.246;2024-01-11T00:55:57;28.80;;;12.95;;
23155;SDS011;11746;50.876;4.246;2024-01-11T00:58:23;25.67;;;13.35;;
23155;SDS011;11746;50.876;4.246;2024-01-11T01:00:51;29.27;;;13.35;;
23155;SDS011;11746;50.876;4.246;2024-01-11T01:03:21;27.63;;;13.50;;
23155;SDS011;11746;50.876;4.246;2024-01-11T01:05:49;31.48;;;14.30;;
23155;SDS011;11746;50.876;4.246;2024-01-11T01:08:17;28.30;;;13.45;;
23155;SDS011;11746;50.876;4.246;2024-01-11T01:10:45;25.85;;;13.40;;
23155;SDS011;11746;50.876;4.246;2024-01-11T01:13:10;27.92;;;12.88;;
23155;SDS011;11746;50.876;4.246;2024-01-11T01:15:36;25.10;;;12.98;;
23155;SDS011;11746;50.876;4.246;2024-01-11T01:18:02;31.25;;;14.30;;
23155;SDS011;11746;50.876;4.246;2024-01-11T01:20:27;27.42;;;13.85;;
23155;SDS011;11746;50.876;4.246;2024-01-11T01:22:56;29.85;;;14.07;;
23155;SDS011;11746;50.876;4.246;2024-01-11T01:25:24;31.77;;;14.43;;
23155;SDS011;11746;50.876;4.246;2024-01-11T01:27:50;28.55;;;14.40;;
23155;SDS011;11746;50.876;4.246;2024-01-11T01:30:15;26.67;;;13.10;;
23155;SDS011;11746;50.876;4.246;2024-01-11T01:32:41;30.17;;;13.18;;
23155;SDS011;11746;50.876;4.246;2024-01-11T01:35:07;29.35;;;14.45;;
23155;SDS011;11746;50.876;4.246;2024-01-11T01:37:35;29.10;;;14.32;;
23155;SDS011;11746;50.876;4.246;2024-01-11T01:40:01;30.55;;;13.10;;
23155;SDS011;11746;50.876;4.246;2024-01-11T01:42:31;26.63;;;12.25;;
23155;SDS011;11746;50.876;4.246;2024-01-11T01:44:56;28.65;;;13.93;;
23155;SDS011;11746;50.876;4.246;2024-01-11T01:47:24;30.60;;;13.75;;
23155;SDS011;11746;50.876;4.246;2024-01-11T01:49:51;29.75;;;13.68;;
23155;SDS011;11746;50.876;4.246;2024-01-11T01:52:20;30.33;;;13.52;;
23155;SDS011;11746;50.876;4.246;2024-01-11T01:54:47;30.33;;;12.95;;
23155;SDS011;11746;50.876;4.246;2024-01-11T01:57:16;24.77;;;13.27;;
23155;SDS011;11746;50.876;4.246;2024-01-11T01:59:45;27.33;;;13.50;;
23155;SDS011;11746;50.876;4.246;2024-01-11T02:02:17;25.20;;;12.65;;
23155;SDS011;11746;50.876;4.246;2024-01-11T02:04:43;25.95;;;13.32;;
23155;SDS011;11746;50.876;4.246;2024-01-11T02:07:09;27.42;;;13.48;;
23155;SDS011;11746;50.876;4.246;2024-01-11T02:09:36;27.25;;;13.73;;
23155;SDS011;11746;50.876;4.246;2024-01-11T02:12:02;30.70;;;13.63;;
23155;SDS011;11746;50.876;4.246;2024-01-11T02:14:28;27.70;;;13.38;;
23155;SDS011;11746;50.876;4.246;2024-01-11T02:16:54;29.33;;;14.45;;
23155;SDS011;11746;50.876;4.246;2024-01-11T02:19:22;27.85;;;13.75;;
23155;SDS011;11746;50.876;4.246;2024-01-11T02:21:48;26.08;;;13.52;;
23155;SDS011;11746;50.876;4.246;2024-01-11T02:24:17;26.60;;;13.32;;
23155;SDS011;11746;50.876;4.246;2024-01-11T02:27:02;30.48;;;13.77;;
23155;SDS011;11746;50.876;4.246;2024-01-11T02:29:30;24.33;;;13.05;;
23155;SDS011;11746;50.876;4.246;2024-01-11T02:31:56;25.65;;;13.25;;
23155;SDS011;11746;50.876;4.246;2024-01-11T02:34:23;25.80;;;13.80;;
23155;SDS011;11746;50.876;4.246;2024-01-11T02:36:51;27.17;;;13.27;;
23155;SDS011;11746;50.876;4.246;2024-01-11T02:39:18;27.88;;;13.50;;
23155;SDS011;11746;50.876;4.246;2024-01-11T02:41:45;26.85;;;14.23;;
23155;SDS011;11746;50.876;4.246;2024-01-11T02:44:11;27.30;;;14.05;;
23155;SDS011;11746;50.876;4.246;2024-01-11T02:46:40;25.88;;;13.65;;
23155;SDS011;11746;50.876;4.246;2024-01-11T02:49:11;26.75;;;13.63;;
23155;SDS011;11746;50.876;4.246;2024-01-11T02:51:39;30.60;;;13.38;;
23155;SDS011;11746;50.876;4.246;2024-01-11T02:54:07;26.75;;;12.98;;
23155;SDS011;11746;50.876;4.246;2024-01-11T02:56:38;25.83;;;12.77;;
23155;SDS011;11746;50.876;4.246;2024-01-11T02:59:06;25.60;;;12.23;;
23155;SDS011;11746;50.876;4.246;2024-01-11T03:01:31;27.13;;;13.15;;
23155;SDS011;11746;50.876;4.246;2024-01-11T03:03:57;25.92;;;13.00;;
23155;SDS011;11746;50.876;4.246;2024-01-11T03:06:27;26.33;;;13.27;;
23155;SDS011;11746;50.876;4.246;2024-01-11T03:08:53;28.27;;;13.63;;
23155;SDS011;11746;50.876;4.246;2024-01-11T03:11:18;26.17;;;12.65;;
23155;SDS011;11746;50.876;4.246;2024-01-11T03:13:44;28.17;;;12.70;;
23155;SDS011;11746;50.876;4.246;2024-01-11T03:16:09;25.52;;;12.68;;
23155;SDS011;11746;50.876;4.246;2024-01-11T03:18:35;27.10;;;13.65;;
23155;SDS011;11746;50.876;4.246;2024-01-11T03:21:03;24.85;;;12.32;;
23155;SDS011;11746;50.876;4.246;2024-01-11T03:23:29;28.60;;;13.55;;
23155;SDS011;11746;50.876;4.246;2024-01-11T03:25:59;27.08;;;13.80;;
23155;SDS011;11746;50.876;4.246;2024-01-11T03:28:25;25.23;;;12.68;;
23155;SDS011;11746;50.876;4.246;2024-01-11T03:30:53;25.77;;;12.65;;
23155;SDS011;11746;50.876;4.246;2024-01-11T03:33:21;25.95;;;13.38;;
23155;SDS011;11746;50.876;4.246;2024-01-11T03:35:49;24.33;;;12.85;;
23155;SDS011;11746;50.876;4.246;2024-01-11T03:38:15;25.73;;;13.63;;
23155;SDS011;11746;50.876;4.246;2024-01-11T03:40:45;24.60;;;12.95;;
23155;SDS011;11746;50.876;4.246;2024-01-11T03:43:18;26.77;;;12.85;;
23155;SDS011;11746;50.876;4.246;2024-01-11T03:45:44;29.00;;;13.25;;
23155;SDS011;11746;50.876;4.246;2024-01-11T03:48:12;28.65;;;13.73;;
23155;SDS011;11746;50.876;4.246;2024-01-11T03:50:37;26.42;;;12.75;;
23155;SDS011;11746;50.876;4.246;2024-01-11T03:53:03;27.38;;;13.75;;
23155;SDS011;11746;50.876;4.246;2024-01-11T03:55:29;26.15;;;13.55;;
23155;SDS011;11746;50.876;4.246;2024-01-11T03:57:54;26.58;;;13.65;;
23155;SDS011;11746;50.876;4.246;2024-01-11T04:00:23;23.23;;;13.30;;
23155;SDS011;11746;50.876;4.246;2024-01-11T04:02:48;26.85;;;12.60;;
23155;SDS011;11746;50.876;4.246;2024-01-11T04:05:16;26.27;;;13.73;;
23155;SDS011;11746;50.876;4.246;2024-01-11T04:07:42;24.55;;;13.40;;
23155;SDS011;11746;50.876;4.246;2024-01-11T04:10:07;24.92;;;13.43;;
23155;SDS011;11746;50.876;4.246;2024-01-11T04:12:36;24.77;;;13.35;;
23155;SDS011;11746;50.876;4.246;2024-01-11T04:15:02;23.60;;;12.57;;
23155;SDS011;11746;50.876;4.246;2024-01-11T04:17:28;25.50;;;13.52;;
23155;SDS011;11746;50.876;4.246;2024-01-11T04:19:59;33.97;;;12.68;;
23155;SDS011;11746;50.876;4.246;2024-01-11T04:22:25;25.52;;;12.57;;
23155;SDS011;11746;50.876;4.246;2024-01-11T04:24:55;24.27;;;13.10;;
23155;SDS011;11746;50.876;4.246;2024-01-11T04:27:23;25.63;;;12.95;;
23155;SDS011;11746;50.876;4.246;2024-01-11T04:29:48;28.15;;;13.05;;
23155;SDS011;11746;50.876;4.246;2024-01-11T04:32:14;25.00;;;12.95;;
23155;SDS011;11746;50.876;4.246;2024-01-11T04:34:40;26.40;;;12.93;;
23155;SDS011;11746;50.876;4.246;2024-01-11T04:37:05;28.65;;;13.13;;
23155;SDS011;11746;50.876;4.246;2024-01-11T04:39:34;25.35;;;12.90;;
23155;SDS011;11746;50.876;4.246;2024-01-11T04:41:59;29.45;;;13.63;;
23155;SDS011;11746;50.876;4.246;2024-01-11T04:44:28;25.92;;;14.40;;
23155;SDS011;11746;50.876;4.246;2024-01-11T04:46:55;30.23;;;14.13;;
23155;SDS011;11746;50.876;4.246;2024-01-11T04:49:23;27.30;;;13.23;;
23155;SDS011;11746;50.876;4.246;2024-01-11T04:51:49;27.77;;;13.90;;
23155;SDS011;11746;50.876;4.246;2024-01-11T04:54:17;29.60;;;13.05;;
23155;SDS011;11746;50.876;4.246;2024-01-11T04:56:44;25.33;;;13.15;;
23155;SDS011;11746;50.876;4.246;2024-01-11T04:59:10;33.72;;;14.75;;
23155;SDS011;11746;50.876;4.246;2024-01-11T05:01:38;29.55;;;13.70;;
23155;SDS011;11746;50.876;4.246;2024-01-11T05:04:06;27.13;;;14.05;;
23155;SDS011;11746;50.876;4.246;2024-01-11T05:06:31;27.85;;;13.02;;
23155;SDS011;11746;50.876;4.246;2024-01-11T05:09:00;25.50;;;13.30;;
23155;SDS011;11746;50.876;4.246;2024-01-11T05:11:25;25.40;;;13.40;;
23155;SDS011;11746;50.876;4.246;2024-01-11T05:13:51;25.90;;;13.05;;
23155;SDS011;11746;50.876;4.246;2024-01-11T05:16:24;28.23;;;13.95;;
23155;SDS011;11746;50.876;4.246;2024-01-11T05:18:50;29.40;;;14.98;;
23155;SDS011;11746;50.876;4.246;2024-01-11T05:21:17;26.98;;;13.45;;
23155;SDS011;11746;50.876;4.246;2024-01-11T05:23:43;23.83;;;13.35;;
23155;SDS011;11746;50.876;4.246;2024-01-11T05:26:12;30.48;;;13.60;;
23155;SDS011;11746;50.876;4.246;2024-01-11T05:28:42;27.38;;;13.32;;
23155;SDS011;11746;50.876;4.246;2024-01-11T05:31:10;32.00;;;15.07;;
23155;SDS011;11746;50.876;4.246;2024-01-11T05:33:40;29.77;;;14.05;;
23155;SDS011;11746;50.876;4.246;2024-01-11T05:36:06;28.35;;;13.15;;
23155;SDS011;11746;50.876;4.246;2024-01-11T05:38:37;28.90;;;14.13;;
23155;SDS011;11746;50.876;4.246;2024-01-11T05:41:06;28.60;;;14.02;;
23155;SDS011;11746;50.876;4.246;2024-01-11T05:43:34;29.10;;;14.38;;
23155;SDS011;11746;50.876;4.246;2024-01-11T05:46:00;27.48;;;14.13;;
23155;SDS011;11746;50.876;4.246;2024-01-11T05:48:28;26.77;;;14.00;;
23155;SDS011;11746;50.876;4.246;2024-01-11T05:50:53;29.52;;;13.68;;
23155;SDS011;11746;50.876;4.246;2024-01-11T05:53:21;29.77;;;15.10;;
23155;SDS011;11746;50.876;4.246;2024-01-11T05:55:52;28.48;;;14.65;;
23155;SDS011;11746;50.876;4.246;2024-01-11T05:58:18;28.88;;;14.55;;
23155;SDS011;11746;50.876;4.246;2024-01-11T06:00:46;25.35;;;13.85;;
23155;SDS011;11746;50.876;4.246;2024-01-11T06:03:12;26.10;;;13.55;;
23155;SDS011;11746;50.876;4.246;2024-01-11T06:05:40;29.83;;;14.80;;
23155;SDS011;11746;50.876;4.246;2024-01-11T06:08:08;28.15;;;13.95;;
23155;SDS011;11746;50.876;4.246;2024-01-11T06:10:34;28.50;;;13.85;;
23155;SDS011;11746;50.876;4.246;2024-01-11T06:13:02;29.08;;;13.52;;
23155;SDS011;11746;50.876;4.246;2024-01-11T06:15:28;33.22;;;16.10;;
23155;SDS011;11746;50.876;4.246;2024-01-11T06:17:55;27.75;;;14.40;;
23155;SDS011;11746;50.876;4.246;2024-01-11T06:20:21;30.80;;;15.23;;
23155;SDS011;11746;50.876;4.246;2024-01-11T06:22:47;27.83;;;14.77;;
23155;SDS011;11746;50.876;4.246;2024-01-11T06:25:17;31.33;;;14.85;;
23155;SDS011;11746;50.876;4.246;2024-01-11T06:27:46;31.40;;;15.23;;
23155;SDS011;11746;50.876;4.246;2024-01-11T06:30:14;30.25;;;15.65;;
23155;SDS011;11746;50.876;4.246;2024-01-11T06:32:42;29.33;;;14.27;;
23155;SDS011;11746;50.876;4.246;2024-01-11T06:35:08;33.45;;;15.35;;
23155;SDS011;11746;50.876;4.246;2024-01-11T06:37:33;27.23;;;14.55;;
23155;SDS011;11746;50.876;4.246;2024-01-11T06:40:01;31.52;;;14.50;;
23155;SDS011;11746;50.876;4.246;2024-01-11T06:42:28;31.95;;;15.80;;
23155;SDS011;11746;50.876;4.246;2024-01-11T06:44:55;29.83;;;15.45;;
23155;SDS011;11746;50.876;4.246;2024-01-11T06:47:20;28.48;;;14.80;;
23155;SDS011;11746;50.876;4.246;2024-01-11T06:49:51;29.42;;;15.07;;
23155;SDS011;11746;50.876;4.246;2024-01-11T06:52:19;28.63;;;14.98;;
23155;SDS011;11746;50.876;4.246;2024-01-11T06:54:44;28.38;;;14.70;;
23155;SDS011;11746;50.876;4.246;2024-01-11T06:57:10;27.60;;;14.15;;
23155;SDS011;11746;50.876;4.246;2024-01-11T06:59:36;34.78;;;15.32;;
23155;SDS011;11746;50.876;4.246;2024-01-11T07:02:04;31.55;;;14.95;;
23155;SDS011;11746;50.876;4.246;2024-01-11T07:04:29;30.92;;;14.90;;
23155;SDS011;11746;50.876;4.246;2024-01-11T07:06:57;34.75;;;14.95;;
23155;SDS011;11746;50.876;4.246;2024-01-11T07:09:25;32.83;;;14.82;;
23155;SDS011;11746;50.876;4.246;2024-01-11T07:11:50;31.38;;;15.15;;
23155;SDS011;11746;50.876;4.246;2024-01-11T07:14:18;34.10;;;15.32;;
23155;SDS011;11746;50.876;4.246;2024-01-11T07:16:46;32.55;;;14.63;;
23155;SDS011;11746;50.876;4.246;2024-01-11T07:19:12;26.48;;;14.02;;
23155;SDS011;11746;50.876;4.246;2024-01-11T07:21:38;29.83;;;14.35;;
23155;SDS011;11746;50.876;4.246;2024-01-11T07:24:06;30.00;;;15.00;;
23155;SDS011;11746;50.876;4.246;2024-01-11T07:26:32;33.92;;;15.18;;
23155;SDS011;11746;50.876;4.246;2024-01-11T07:28:57;30.98;;;14.52;;
23155;SDS011;11746;50.876;4.246;2024-01-11T07:31:26;29.23;;;14.63;;
23155;SDS011;11746;50.876;4.246;2024-01-11T07:33:51;29.23;;;14.77;;
23155;SDS011;11746;50.876;4.246;2024-01-11T07:36:17;31.38;;;15.68;;
23155;SDS011;11746;50.876;4.246;2024-01-11T07:38:43;32.40;;;14.27;;
23155;SDS011;11746;50.876;4.246;2024-01-11T07:41:09;35.25;;;15.25;;
23155;SDS011;11746;50.876;4.246;2024-01-11T07:43:37;32.92;;;16.13;;
23155;SDS011;11746;50.876;4.246;2024-01-11T07:46:03;30.77;;;14.90;;
23155;SDS011;11746;50.876;4.246;2024-01-11T07:48:30;39.65;;;15.48;;
23155;SDS011;11746;50.876;4.246;2024-01-11T07:50:59;34.53;;;15.77;;
23155;SDS011;11746;50.876;4.246;2024-01-11T07:53:25;32.13;;;14.30;;
23155;SDS011;11746;50.876;4.246;2024-01-11T07:55:51;31.38;;;14.65;;
23155;SDS011;11746;50.876;4.246;2024-01-11T07:58:19;33.03;;;15.13;;
23155;SDS011;11746;50.876;4.246;2024-01-11T08:00:46;30.85;;;14.73;;
23155;SDS011;11746;50.876;4.246;2024-01-11T08:03:13;27.15;;;15.35;;
23155;SDS011;11746;50.876;4.246;2024-01-11T08:05:39;34.78;;;15.95;;
23155;SDS011;11746;50.876;4.246;2024-01-11T08:08:08;30.33;;;16.10;;
23155;SDS011;11746;50.876;4.246;2024-01-11T08:10:36;30.83;;;15.77;;
23155;SDS011;11746;50.876;4.246;2024-01-11T08:13:01;33.38;;;19.63;;
23155;SDS011;11746;50.876;4.246;2024-01-11T08:15:31;46.60;;;26.70;;
23155;SDS011;11746;50.876;4.246;2024-01-11T08:17:58;35.28;;;17.70;;
23155;SDS011;11746;50.876;4.246;2024-01-11T08:20:26;34.47;;;18.02;;
23155;SDS011;11746;50.876;4.246;2024-01-11T08:22:54;34.33;;;16.42;;
23155;SDS011;11746;50.876;4.246;2024-01-11T08:25:19;36.67;;;16.60;;
23155;SDS011;11746;50.876;4.246;2024-01-11T08:27:45;35.10;;;16.38;;
23155;SDS011;11746;50.876;4.246;2024-01-11T08:30:13;32.08;;;16.23;;
23155;SDS011;11746;50.876;4.246;2024-01-11T08:32:39;35.45;;;16.98;;
23155;SDS011;11746;50.876;4.246;2024-01-11T08:35:06;30.48;;;15.45;;
23155;SDS011;11746;50.876;4.246;2024-01-11T08:37:36;34.47;;;16.17;;
23155;SDS011;11746;50.876;4.246;2024-01-11T08:40:04;31.83;;;15.20;;
23155;SDS011;11746;50.876;4.246;2024-01-11T08:42:31;30.92;;;16.95;;
23155;SDS011;11746;50.876;4.246;2024-01-11T08:44:59;31.85;;;16.35;;
23155;SDS011;11746;50.876;4.246;2024-01-11T08:47:31;31.73;;;16.60;;
23155;SDS011;11746;50.876;4.246;2024-01-11T08:49:57;35.00;;;16.30;;
23155;SDS011;11746;50.876;4.246;2024-01-11T08:52:22;32.78;;;17.08;;
23155;SDS011;11746;50.876;4.246;2024-01-11T08:54:48;39.58;;;18.60;;
23155;SDS011;11746;50.876;4.246;2024-01-11T08:57:16;30.10;;;16.00;;
23155;SDS011;11746;50.876;4.246;2024-01-11T08:59:44;34.45;;;16.95;;
23155;SDS011;11746;50.876;4.246;2024-01-11T09:02:10;32.45;;;15.30;;
23155;SDS011;11746;50.876;4.246;2024-01-11T09:04:36;32.55;;;16.38;;
23155;SDS011;11746;50.876;4.246;2024-01-11T09:07:04;34.38;;;16.20;;
23155;SDS011;11746;50.876;4.246;2024-01-11T09:09:32;32.75;;;15.77;;
23155;SDS011;11746;50.876;4.246;2024-01-11T09:12:02;34.97;;;17.63;;
23155;SDS011;11746;50.876;4.246;2024-01-11T09:14:30;1.27;;;1.27;;
23155;SDS011;11746;50.876;4.246;2024-01-11T09:16:55;2.38;;;1.67;;
23155;SDS011;11746;50.876;4.246;2024-01-11T09:19:23;32.85;;;15.50;;
23155;SDS011;11746;50.876;4.246;2024-01-11T09:21:49;33.60;;;16.92;;
23155;SDS011;11746;50.876;4.246;2024-01-11T09:24:17;36.55;;;17.30;;
23155;SDS011;11746;50.876;4.246;2024-01-11T09:26:45;32.10;;;16.75;;
23155;SDS011;11746;50.876;4.246;2024-01-11T09:29:10;32.97;;;16.45;;
23155;SDS011;11746;50.876;4.246;2024-01-11T09:31:36;37.10;;;17.50;;
23155;SDS011;11746;50.876;4.246;2024-01-11T09:34:04;34.53;;;17.10;;
23155;SDS011;11746;50.876;4.246;2024-01-11T09:36:32;34.60;;;17.20;;
23155;SDS011;11746;50.876;4.246;2024-01-11T09:39:01;38.00;;;17.35;;
23155;SDS011;11746;50.876;4.246;2024-01-11T09:41:30;31.98;;;16.65;;
23155;SDS011;11746;50.876;4.246;2024-01-11T09:43:59;31.98;;;16.60;;
23155;SDS011;11746;50.876;4.246;2024-01-11T09:46:29;36.17;;;16.80;;
23155;SDS011;11746;50.876;4.246;2024-01-11T09:48:55;33.67;;;17.13;;
23155;SDS011;11746;50.876;4.246;2024-01-11T09:51:23;37.28;;;18.45;;
23155;SDS011;11746;50.876;4.246;2024-01-11T09:53:53;36.90;;;17.70;;
23155;SDS011;11746;50.876;4.246;2024-01-11T09:56:23;40.20;;;18.17;;
23155;SDS011;11746;50.876;4.246;2024-01-11T09:58:49;35.55;;;18.45;;
23155;SDS011;11746;50.876;4.246;2024-01-11T10:01:18;34.65;;;17.00;;
23155;SDS011;11746;50.876;4.246;2024-01-11T10:03:47;38.00;;;19.38;;
23155;SDS011;11746;50.876;4.246;2024-01-11T10:06:17;39.45;;;19.13;;
23155;SDS011;11746;50.876;4.246;2024-01-11T10:08:44;38.03;;;18.67;;
23155;SDS011;11746;50.876;4.246;2024-01-11T10:11:12;40.08;;;18.80;;
23155;SDS011;11746;50.876;4.246;2024-01-11T10:13:40;34.95;;;17.85;;
23155;SDS011;11746;50.876;4.246;2024-01-11T10:16:08;38.80;;;17.80;;
23155;SDS011;11746;50.876;4.246;2024-01-11T10:18:35;33.10;;;16.92;;
23155;SDS011;11746;50.876;4.246;2024-01-11T10:21:01;34.28;;;17.98;;
23155;SDS011;11746;50.876;4.246;2024-01-11T10:23:27;31.67;;;17.02;;
23155;SDS011;11746;50.876;4.246;2024-01-11T10:25:56;36.45;;;17.30;;
23155;SDS011;11746;50.876;4.246;2024-01-11T10:28:23;38.03;;;17.45;;
23155;SDS011;11746;50.876;4.246;2024-01-11T10:30:54;32.63;;;16.75;;
23155;SDS011;11746;50.876;4.246;2024-01-11T10:33:28;31.98;;;16.25;;
23155;SDS011;11746;50.876;4.246;2024-01-11T10:35:56;32.25;;;16.27;;
23155;SDS011;11746;50.876;4.246;2024-01-11T10:38:24;35.95;;;16.27;;
23155;SDS011;11746;50.876;4.246;2024-01-11T10:40:51;35.13;;;16.38;;
23155;SDS011;11746;50.876;4.246;2024-01-11T10:43:21;34.70;;;16.52;;
23155;SDS011;11746;50.876;4.246;2024-01-11T10:45:50;34.15;;;17.40;;
23155;SDS011;11746;50.876;4.246;2024-01-11T10:48:22;36.25;;;17.00;;
23155;SDS011;11746;50.876;4.246;2024-01-11T10:50:52;33.78;;;17.38;;
23155;SDS011;11746;50.876;4.246;2024-01-11T10:56:14;28.50;;;15.43;;
23155;SDS011;11746;50.876;4.246;2024-01-11T10:58:44;32.47;;;16.83;;
23155;SDS011;11746;50.876;4.246;2024-01-11T11:01:10;36.75;;;16.88;;
23155;SDS011;11746;50.876;4.246;2024-01-11T11:03:38;29.98;;;16.40;;
23155;SDS011;11746;50.876;4.246;2024-01-11T11:06:07;29.02;;;16.60;;
23155;SDS011;11746;50.876;4.246;2024-01-11T11:08:38;31.58;;;16.38;;
23155;SDS011;11746;50.876;4.246;2024-01-11T11:11:05;33.25;;;16.35;;
23155;SDS011;11746;50.876;4.246;2024-01-11T11:13:33;40.33;;;17.15;;
23155;SDS011;11746;50.876;4.246;2024-01-11T11:16:02;34.50;;;18.20;;
23155;SDS011;11746;50.876;4.246;2024-01-11T11:18:32;31.80;;;17.88;;
23155;SDS011;11746;50.876;4.246;2024-01-11T11:21:00;33.08;;;18.10;;
23155;SDS011;11746;50.876;4.246;2024-01-11T11:23:26;33.08;;;17.17;;
23155;SDS011;11746;50.876;4.246;2024-01-11T11:25:54;32.38;;;17.45;;
23155;SDS011;11746;50.876;4.246;2024-01-11T11:28:22;32.30;;;17.05;;
23155;SDS011;11746;50.876;4.246;2024-01-11T11:30:48;30.40;;;16.77;;
23155;SDS011;11746;50.876;4.246;2024-01-11T11:33:25;32.30;;;16.75;;
23155;SDS011;11746;50.876;4.246;2024-01-11T11:35:54;29.92;;;17.13;;
23155;SDS011;11746;50.876;4.246;2024-01-11T11:38:22;33.53;;;16.10;;
23155;SDS011;11746;50.876;4.246;2024-01-11T11:40:52;32.47;;;17.55;;
23155;SDS011;11746;50.876;4.246;2024-01-11T11:43:18;33.33;;;15.88;;
23155;SDS011;11746;50.876;4.246;2024-01-11T11:45:46;31.83;;;16.83;;
23155;SDS011;11746;50.876;4.246;2024-01-11T11:53:40;26.27;;;14.90;;
23155;SDS011;11746;50.876;4.246;2024-01-11T11:56:10;29.25;;;15.15;;
23155;SDS011;11746;50.876;4.246;2024-01-11T11:58:37;28.23;;;15.30;;
23155;SDS011;11746;50.876;4.246;2024-01-11T12:01:04;29.08;;;16.05;;
23155;SDS011;11746;50.876;4.246;2024-01-11T12:03:38;36.10;;;15.52;;
23155;SDS011;11746;50.876;4.246;2024-01-11T12:06:07;28.52;;;15.77;;
23155;SDS011;11746;50.876;4.246;2024-01-11T12:08:36;25.80;;;14.35;;
23155;SDS011;11746;50.876;4.246;2024-01-11T12:11:02;27.10;;;14.50;;
23155;SDS011;11746;50.876;4.246;2024-01-11T12:13:31;26.60;;;14.45;;
23155;SDS011;11746;50.876;4.246;2024-01-11T12:15:57;26.45;;;13.82;;
23155;SDS011;11746;50.876;4.246;2024-01-11T12:18:25;27.63;;;14.38;;
23155;SDS011;11746;50.876;4.246;2024-01-11T12:20:51;28.75;;;15.70;;
23155;SDS011;11746;50.876;4.246;2024-01-11T12:23:19;26.80;;;14.38;;
23155;SDS011;11746;50.876;4.246;2024-01-11T12:25:47;28.52;;;15.85;;
23155;SDS011;11746;50.876;4.246;2024-01-11T12:28:15;29.92;;;15.32;;
23155;SDS011;11746;50.876;4.246;2024-01-11T12:30:44;31.40;;;15.98;;
23155;SDS011;11746;50.876;4.246;2024-01-11T12:33:10;25.80;;;14.57;;
23155;SDS011;11746;50.876;4.246;2024-01-11T12:35:37;27.05;;;13.73;;
23155;SDS011;11746;50.876;4.246;2024-01-11T12:38:05;24.95;;;14.85;;
23155;SDS011;11746;50.876;4.246;2024-01-11T12:40:31;27.83;;;15.43;;
23155;SDS011;11746;50.876;4.246;2024-01-11T12:42:59;28.88;;;14.85;;
23155;SDS011;11746;50.876;4.246;2024-01-11T12:45:25;30.27;;;15.23;;
23155;SDS011;11746;50.876;4.246;2024-01-11T12:47:54;26.50;;;15.05;;
23155;SDS011;11746;50.876;4.246;2024-01-11T12:50:21;25.30;;;14.30;;
23155;SDS011;11746;50.876;4.246;2024-01-11T12:53:03;28.75;;;15.18;;
23155;SDS011;11746;50.876;4.246;2024-01-11T12:55:42;27.55;;;14.98;;
23155;SDS011;11746;50.876;4.246;2024-01-11T12:58:11;26.17;;;14.73;;
23155;SDS011;11746;50.876;4.246;2024-01-11T13:00:37;26.95;;;14.15;;
23155;SDS011;11746;50.876;4.246;2024-01-11T13:03:05;26.83;;;14.70;;
23155;SDS011;11746;50.876;4.246;2024-01-11T13:05:31;27.73;;;14.40;;
23155;SDS011;11746;50.876;4.246;2024-01-11T13:08:02;25.33;;;14.02;;
23155;SDS011;11746;50.876;4.246;2024-01-11T13:10:34;28.80;;;13.80;;
23155;SDS011;11746;50.876;4.246;2024-01-11T13:13:04;25.83;;;13.50;;
23155;SDS011;11746;50.876;4.246;2024-01-11T13:15:33;26.38;;;14.38;;
23155;SDS011;11746;50.876;4.246;2024-01-11T13:18:01;24.10;;;13.82;;
23155;SDS011;11746;50.876;4.246;2024-01-11T13:20:29;26.85;;;13.77;;
23155;SDS011;11746;50.876;4.246;2024-01-11T13:25:43;22.52;;;12.93;;
23155;SDS011;11746;50.876;4.246;2024-01-11T13:28:10;23.48;;;12.70;;
23155;SDS011;11746;50.876;4.246;2024-01-11T13:30:39;28.33;;;13.93;;
23155;SDS011;11746;50.876;4.246;2024-01-11T13:33:05;23.63;;;13.23;;
23155;SDS011;11746;50.876;4.246;2024-01-11T13:35:38;23.92;;;13.75;;
23155;SDS011;11746;50.876;4.246;2024-01-11T13:38:04;26.95;;;14.23;;
23155;SDS011;11746;50.876;4.246;2024-01-11T13:40:30;22.42;;;13.18;;
23155;SDS011;11746;50.876;4.246;2024-01-11T13:42:57;22.85;;;12.75;;
23155;SDS011;11746;50.876;4.246;2024-01-11T13:45:29;20.98;;;12.88;;
23155;SDS011;11746;50.876;4.246;2024-01-11T13:47:55;21.38;;;13.73;;
23155;SDS011;11746;50.876;4.246;2024-01-11T13:50:20;20.38;;;13.27;;
23155;SDS011;11746;50.876;4.246;2024-01-11T13:52:49;24.05;;;13.27;;
23155;SDS011;11746;50.876;4.246;2024-01-11T13:55:17;24.95;;;13.60;;
23155;SDS011;11746;50.876;4.246;2024-01-11T13:57:46;23.70;;;13.85;;
23155;SDS011;11746;50.876;4.246;2024-01-11T14:00:14;21.27;;;13.10;;
23155;SDS011;11746;50.876;4.246;2024-01-11T14:02:42;21.70;;;13.57;;
23155;SDS011;11746;50.876;4.246;2024-01-11T14:05:08;22.10;;;13.07;;
23155;SDS011;11746;50.876;4.246;2024-01-11T14:07:37;21.17;;;13.40;;
23155;SDS011;11746;50.876;4.246;2024-01-11T14:10:03;20.05;;;12.38;;
23155;SDS011;11746;50.876;4.246;2024-01-11T14:12:33;20.90;;;12.80;;
23155;SDS011;11746;50.876;4.246;2024-01-11T14:15:05;23.90;;;13.13;;
23155;SDS011;11746;50.876;4.246;2024-01-11T14:17:33;19.05;;;12.57;;
23155;SDS011;11746;50.876;4.246;2024-01-11T14:20:01;20.67;;;13.02;;
23155;SDS011;11746;50.876;4.246;2024-01-11T14:22:31;18.73;;;12.43;;
23155;SDS011;11746;50.876;4.246;2024-01-11T14:24:59;20.25;;;12.02;;
23155;SDS011;11746;50.876;4.246;2024-01-11T14:27:25;22.40;;;13.75;;
23155;SDS011;11746;50.876;4.246;2024-01-11T14:29:50;21.02;;;12.80;;
23155;SDS011;11746;50.876;4.246;2024-01-11T14:32:17;20.85;;;12.20;;
23155;SDS011;11746;50.876;4.246;2024-01-11T14:34:43;20.80;;;12.52;;